sensor_id;sensor_type;location;lat;lon;timestamp;P1;durP1;ratioP1;P2;durP2;ratioP2
71902;SDS011;59778;50.310;18.780;2023-08-06T00:08:46;49.00;;;18.37;;
71902;SDS011;59778;50.310;18.780;2023-08-06T00:24:07;67.63;;;20.73;;
71902;SDS011;59778;50.310;18.780;2023-08-06T00:39:28;129.53;;;35.83;;
71902;SDS011;59778;50.310;18.780;2023-08-06T00:54:50;68.57;;;23.17;;
71902;SDS011;59778;50.310;18.780;2023-08-06T01:10:27;75.43;;;26.67;;
71902;SDS011;59778;50.310;18.780;2023-08-06T01:41:12;43.07;;;19.80;;
71902;SDS011;59778;50.310;18.780;2023-08-06T01:56:36;49.87;;;18.70;;
71902;SDS011;59778;50.310;18.780;2023-08-06T02:11:57;50.40;;;20.30;;
71902;SDS011;59778;50.310;18.780;2023-08-06T02:27:18;46.30;;;17.93;;
71902;SDS011;59778;50.310;18.780;2023-08-06T02:42:39;35.70;;;16.57;;
71902;SDS011;59778;50.310;18.780;2023-08-06T02:58:01;37.90;;;17.50;;
71902;SDS011;59778;50.310;18.780;2023-08-06T03:13:22;39.13;;;17.70;;
71902;SDS011;59778;50.310;18.780;2023-08-06T03:28:44;32.60;;;15.83;;
71902;SDS011;59778;50.310;18.780;2023-08-06T03:44:05;41.20;;;19.10;;
71902;SDS011;59778;50.310;18.780;2023-08-06T03:59:27;46.67;;;20.17;;
71902;SDS011;59778;50.310;18.780;2023-08-06T04:14:48;58.67;;;20.77;;
71902;SDS011;59778;50.310;18.780;2023-08-06T04:30:11;98.40;;;23.03;;
71902;SDS011;59778;50.310;18.780;2023-08-06T04:45:34;15.07;;;6.50;;
71902;SDS011;59778;50.310;18.780;2023-08-06T05:00:56;7.93;;;2.63;;
71902;SDS011;59778;50.310;18.780;2023-08-06T05:16:17;1.70;;;0.70;;
71902;SDS011;59778;50.310;18.780;2023-08-06T05:31:38;3.33;;;0.60;;
71902;SDS011;59778;50.310;18.780;2023-08-06T05:47:02;2.97;;;0.40;;
71902;SDS011;59778;50.310;18.780;2023-08-06T06:02:23;0.57;;;0.40;;
71902;SDS011;59778;50.310;18.780;2023-08-06T06:17:44;0.47;;;0.40;;
71902;SDS011;59778;50.310;18.780;2023-08-06T06:33:09;0.93;;;0.50;;
71902;SDS011;59778;50.310;18.780;2023-08-06T06:48:32;1.43;;;0.30;;
71902;SDS011;59778;50.310;18.780;2023-08-06T07:03:53;1.63;;;0.40;;
71902;SDS011;59778;50.310;18.780;2023-08-06T07:19:14;1.33;;;0.30;;
71902;SDS011;59778;50.310;18.780;2023-08-06T07:34:35;1.17;;;0.30;;
71902;SDS011;59778;50.310;18.780;2023-08-06T07:49:57;0.60;;;0.43;;
71902;SDS011;59778;50.310;18.780;2023-08-06T08:05:18;4.63;;;0.70;;
71902;SDS011;59778;50.310;18.780;2023-08-06T08:20:39;1.63;;;0.57;;
71902;SDS011;59778;50.310;18.780;2023-08-06T08:36:00;2.33;;;0.90;;
71902;SDS011;59778;50.310;18.780;2023-08-06T08:51:22;2.80;;;1.00;;
71902;SDS011;59778;50.310;18.780;2023-08-06T09:06:46;0.50;;;0.50;;
71902;SDS011;59778;50.310;18.780;2023-08-06T09:22:11;2.67;;;0.50;;
71902;SDS011;59778;50.310;18.780;2023-08-06T09:37:37;1.43;;;0.50;;
71902;SDS011;59778;50.310;18.780;2023-08-06T09:52:59;2.13;;;0.70;;
71902;SDS011;59778;50.310;18.780;2023-08-06T10:08:21;0.60;;;0.60;;
71902;SDS011;59778;50.310;18.780;2023-08-06T10:23:43;1.60;;;0.47;;
71902;SDS011;59778;50.310;18.780;2023-08-06T10:39:05;1.27;;;0.70;;
71902;SDS011;59778;50.310;18.780;2023-08-06T10:54:29;2.50;;;1.13;;
71902;SDS011;59778;50.310;18.780;2023-08-06T11:09:50;3.00;;;0.80;;
71902;SDS011;59778;50.310;18.780;2023-08-06T11:25:14;2.07;;;0.80;;
71902;SDS011;59778;50.310;18.780;2023-08-06T11:40:35;2.50;;;1.10;;
71902;SDS011;59778;50.310;18.780;2023-08-06T11:55:57;3.00;;;0.80;;
71902;SDS011;59778;50.310;18.780;2023-08-06T12:11:20;2.13;;;0.90;;
71902;SDS011;59778;50.310;18.780;2023-08-06T12:26:44;2.13;;;1.10;;
71902;SDS011;59778;50.310;18.780;2023-08-06T12:42:06;3.47;;;1.10;;
71902;SDS011;59778;50.310;18.780;2023-08-06T12:57:27;3.37;;;1.20;;
71902;SDS011;59778;50.310;18.780;2023-08-06T13:12:50;3.90;;;0.90;;
71902;SDS011;59778;50.310;18.780;2023-08-06T13:28:11;1.53;;;0.80;;
71902;SDS011;59778;50.310;18.780;2023-08-06T13:43:34;2.03;;;1.00;;
71902;SDS011;59778;50.310;18.780;2023-08-06T13:58:55;3.50;;;0.90;;
71902;SDS011;59778;50.310;18.780;2023-08-06T14:14:17;1.43;;;0.70;;
71902;SDS011;59778;50.310;18.780;2023-08-06T14:29:38;1.40;;;0.70;;
71902;SDS011;59778;50.310;18.780;2023-08-06T14:44:59;1.43;;;0.67;;
71902;SDS011;59778;50.310;18.780;2023-08-06T15:00:20;1.10;;;0.70;;
71902;SDS011;59778;50.310;18.780;2023-08-06T15:15:42;1.33;;;0.70;;
71902;SDS011;59778;50.310;18.780;2023-08-06T15:31:03;1.60;;;0.60;;
71902;SDS011;59778;50.310;18.780;2023-08-06T15:46:29;2.00;;;1.03;;
71902;SDS011;59778;50.310;18.780;2023-08-06T16:01:51;2.63;;;1.20;;
71902;SDS011;59778;50.310;18.780;2023-08-06T16:17:12;0.80;;;0.60;;
71902;SDS011;59778;50.310;18.780;2023-08-06T16:32:34;2.43;;;0.60;;
71902;SDS011;59778;50.310;18.780;2023-08-06T16:47:58;0.77;;;0.60;;
71902;SDS011;59778;50.310;18.780;2023-08-06T17:03:20;2.33;;;0.60;;
71902;SDS011;59778;50.310;18.780;2023-08-06T17:18:41;3.50;;;0.80;;
71902;SDS011;59778;50.310;18.780;2023-08-06T17:34:03;2.90;;;0.80;;
71902;SDS011;59778;50.310;18.780;2023-08-06T17:49:24;2.63;;;0.90;;
71902;SDS011;59778;50.310;18.780;2023-08-06T18:04:45;2.03;;;0.77;;
71902;SDS011;59778;50.310;18.780;2023-08-06T18:20:10;4.70;;;1.80;;
71902;SDS011;59778;50.310;18.780;2023-08-06T18:35:31;2.90;;;1.00;;
71902;SDS011;59778;50.310;18.780;2023-08-06T18:50:53;2.93;;;0.97;;
71902;SDS011;59778;50.310;18.780;2023-08-06T19:06:16;2.87;;;0.90;;
71902;SDS011;59778;50.310;18.780;2023-08-06T19:21:37;4.47;;;1.23;;
71902;SDS011;59778;50.310;18.780;2023-08-06T19:37:01;3.20;;;1.20;;
71902;SDS011;59778;50.310;18.780;2023-08-06T19:52:23;7.00;;;3.23;;
71902;SDS011;59778;50.310;18.780;2023-08-06T20:08:10;5.10;;;1.80;;
71902;SDS011;59778;50.310;18.780;2023-08-06T20:23:32;5.10;;;1.60;;
71902;SDS011;59778;50.310;18.780;2023-08-06T20:39:00;5.40;;;2.03;;
71902;SDS011;59778;50.310;18.780;2023-08-06T20:54:22;3.30;;;1.70;;
71902;SDS011;59778;50.310;18.780;2023-08-06T21:09:43;4.33;;;1.60;;
71902;SDS011;59778;50.310;18.780;2023-08-06T21:25:06;3.67;;;1.57;;
71902;SDS011;59778;50.310;18.780;2023-08-06T21:40:27;7.23;;;1.73;;
71902;SDS011;59778;50.310;18.780;2023-08-06T21:55:48;8.53;;;2.50;;
71902;SDS011;59778;50.310;18.780;2023-08-06T22:11:10;5.47;;;1.97;;
71902;SDS011;59778;50.310;18.780;2023-08-06T22:26:40;4.23;;;2.10;;
71902;SDS011;59778;50.310;18.780;2023-08-06T22:42:01;4.77;;;2.10;;
71902;SDS011;59778;50.310;18.780;2023-08-06T22:57:22;6.43;;;1.97;;
71902;SDS011;59778;50.310;18.780;2023-08-06T23:12:44;3.87;;;2.00;;
71902;SDS011;59778;50.310;18.780;2023-08-06T23:28:05;4.93;;;2.40;;
71902;SDS011;59778;50.310;18.780;2023-08-06T23:43:26;10.77;;;2.90;;
71902;SDS011;59778;50.310;18.780;2023-08-06T23:58:47;6.50;;;3.30;;
